sensor_id;sensor_type;location;lat;lon;timestamp;temperature;humidity
69464;DHT22;56665;41.106;16.688;2022-12-18T00:01:13;12.85;81.30
69464;DHT22;56665;41.106;16.688;2022-12-18T00:04:23;12.78;81.58
69464;DHT22;56665;41.106;16.688;2022-12-18T00:07:27;12.75;82.02
69464;DHT22;56665;41.106;16.688;2022-12-18T00:10:31;12.73;82.46
69464;DHT22;56665;41.106;16.688;2022-12-18T00:13:36;12.73;82.85
69464;DHT22;56665;41.106;16.688;2022-12-18T00:16:44;12.73;83.01
69464;DHT22;56665;41.106;16.688;2022-12-18T00:19:47;12.78;83.26
69464;DHT22;56665;41.106;16.688;2022-12-18T00:22:52;12.75;83.14
69464;DHT22;56665;41.106;16.688;2022-12-18T00:26:08;12.75;83.60
69464;DHT22;56665;41.106;16.688;2022-12-18T00:29:13;12.76;83.76
69464;DHT22;56665;41.106;16.688;2022-12-18T00:32:21;12.76;84.25
69464;DHT22;56665;41.106;16.688;2022-12-18T00:35:26;12.73;84.41
69464;DHT22;56665;41.106;16.688;2022-12-18T00:38:30;12.75;84.45
69464;DHT22;56665;41.106;16.688;2022-12-18T00:41:34;12.76;84.65
69464;DHT22;56665;41.106;16.688;2022-12-18T00:44:59;12.75;84.88
69464;DHT22;56665;41.106;16.688;2022-12-18T00:48:03;12.72;85.20
69464;DHT22;56665;41.106;16.688;2022-12-18T00:51:08;12.72;85.33
69464;DHT22;56665;41.106;16.688;2022-12-18T00:54:12;12.75;85.29
69464;DHT22;56665;41.106;16.688;2022-12-18T00:57:16;12.73;85.29
69464;DHT22;56665;41.106;16.688;2022-12-18T01:00:22;12.72;85.38
69464;DHT22;56665;41.106;16.688;2022-12-18T01:03:26;12.72;85.33
69464;DHT22;56665;41.106;16.688;2022-12-18T01:06:30;12.71;85.45
69464;DHT22;56665;41.106;16.688;2022-12-18T01:09:34;12.64;85.40
69464;DHT22;56665;41.106;16.688;2022-12-18T01:12:37;12.62;85.36
69464;DHT22;56665;41.106;16.688;2022-12-18T01:15:48;12.52;85.42
69464;DHT22;56665;41.106;16.688;2022-12-18T01:18:53;12.51;85.67
69464;DHT22;56665;41.106;16.688;2022-12-18T01:22:03;12.44;85.70
69464;DHT22;56665;41.106;16.688;2022-12-18T01:25:08;12.41;85.92
69464;DHT22;56665;41.106;16.688;2022-12-18T01:28:11;12.44;86.27
69464;DHT22;56665;41.106;16.688;2022-12-18T01:31:22;12.45;86.70
69464;DHT22;56665;41.106;16.688;2022-12-18T01:34:26;12.47;86.86
69464;DHT22;56665;41.106;16.688;2022-12-18T01:37:29;12.45;87.27
69464;DHT22;56665;41.106;16.688;2022-12-18T01:40:36;12.44;87.71
69464;DHT22;56665;41.106;16.688;2022-12-18T01:43:55;12.42;88.06
69464;DHT22;56665;41.106;16.688;2022-12-18T01:47:00;12.42;88.19
69464;DHT22;56665;41.106;16.688;2022-12-18T01:53:33;12.40;88.82
69464;DHT22;56665;41.106;16.688;2022-12-18T01:56:38;12.41;88.83
69464;DHT22;56665;41.106;16.688;2022-12-18T01:59:45;12.42;88.93
69464;DHT22;56665;41.106;16.688;2022-12-18T02:02:52;12.42;89.18
69464;DHT22;56665;41.106;16.688;2022-12-18T02:06:18;12.41;89.26
69464;DHT22;56665;41.106;16.688;2022-12-18T02:09:31;12.42;89.44
69464;DHT22;56665;41.106;16.688;2022-12-18T02:13:09;12.42;89.55
69464;DHT22;56665;41.106;16.688;2022-12-18T02:16:29;12.41;89.52
69464;DHT22;56665;41.106;16.688;2022-12-18T02:20:13;12.44;89.55
69464;DHT22;56665;41.106;16.688;2022-12-18T02:26:58;12.41;89.50
69464;DHT22;56665;41.106;16.688;2022-12-18T02:30:22;12.42;89.47
69464;DHT22;56665;41.106;16.688;2022-12-18T02:33:27;12.37;89.22
69464;DHT22;56665;41.106;16.688;2022-12-18T02:36:34;12.37;89.17
69464;DHT22;56665;41.106;16.688;2022-12-18T02:39:40;12.36;89.29
69464;DHT22;56665;41.106;16.688;2022-12-18T02:42:46;12.34;89.52
69464;DHT22;56665;41.106;16.688;2022-12-18T02:45:59;12.40;89.26
69464;DHT22;56665;41.106;16.688;2022-12-18T02:49:31;12.40;89.15
69464;DHT22;56665;41.106;16.688;2022-12-18T02:56:27;12.40;89.05
69464;DHT22;56665;41.106;16.688;2022-12-18T03:00:06;12.34;89.21
69464;DHT22;56665;41.106;16.688;2022-12-18T03:03:24;12.36;89.15
69464;DHT22;56665;41.106;16.688;2022-12-18T03:06:38;12.36;89.33
69464;DHT22;56665;41.106;16.688;2022-12-18T03:09:50;12.33;89.12
69464;DHT22;56665;41.106;16.688;2022-12-18T03:13:02;12.38;88.93
69464;DHT22;56665;41.106;16.688;2022-12-18T03:16:11;12.31;88.95
69464;DHT22;56665;41.106;16.688;2022-12-18T03:19:21;12.33;88.78
69464;DHT22;56665;41.106;16.688;2022-12-18T03:22:33;12.28;88.92
69464;DHT22;56665;41.106;16.688;2022-12-18T03:25:40;12.27;88.89
69464;DHT22;56665;41.106;16.688;2022-12-18T03:28:51;12.28;88.72
69464;DHT22;56665;41.106;16.688;2022-12-18T03:32:13;12.28;88.79
69464;DHT22;56665;41.106;16.688;2022-12-18T03:35:24;12.31;88.67
69464;DHT22;56665;41.106;16.688;2022-12-18T03:38:29;12.33;88.59
69464;DHT22;56665;41.106;16.688;2022-12-18T03:41:47;12.33;88.45
69464;DHT22;56665;41.106;16.688;2022-12-18T03:52:03;12.27;88.84
69464;DHT22;56665;41.106;16.688;2022-12-18T03:55:12;12.26;88.64
69464;DHT22;56665;41.106;16.688;2022-12-18T03:58:23;12.23;88.68
69464;DHT22;56665;41.106;16.688;2022-12-18T04:01:49;12.24;88.86
69464;DHT22;56665;41.106;16.688;2022-12-18T04:05:00;12.21;88.84
69464;DHT22;56665;41.106;16.688;2022-12-18T04:08:05;12.23;88.92
69464;DHT22;56665;41.106;16.688;2022-12-18T04:11:13;12.17;88.88
69464;DHT22;56665;41.106;16.688;2022-12-18T04:14:18;12.21;89.48
69464;DHT22;56665;41.106;16.688;2022-12-18T04:17:24;12.28;89.56
69464;DHT22;56665;41.106;16.688;2022-12-18T04:20:30;12.34;89.18
69464;DHT22;56665;41.106;16.688;2022-12-18T04:23:33;12.44;88.72
69464;DHT22;56665;41.106;16.688;2022-12-18T04:26:42;12.45;88.58
69464;DHT22;56665;41.106;16.688;2022-12-18T04:30:00;12.49;87.96
69464;DHT22;56665;41.106;16.688;2022-12-18T04:33:09;12.54;87.87
69464;DHT22;56665;41.106;16.688;2022-12-18T04:36:19;12.65;87.83
69464;DHT22;56665;41.106;16.688;2022-12-18T04:39:24;12.72;87.55
69464;DHT22;56665;41.106;16.688;2022-12-18T04:42:30;12.72;87.23
69464;DHT22;56665;41.106;16.688;2022-12-18T04:45:37;12.79;87.23
69464;DHT22;56665;41.106;16.688;2022-12-18T04:48:41;12.80;86.64
69464;DHT22;56665;41.106;16.688;2022-12-18T04:51:45;12.88;87.51
69464;DHT22;56665;41.106;16.688;2022-12-18T04:54:49;13.02;88.07
69464;DHT22;56665;41.106;16.688;2022-12-18T04:57:53;13.07;86.99
69464;DHT22;56665;41.106;16.688;2022-12-18T05:00:57;13.13;86.16
69464;DHT22;56665;41.106;16.688;2022-12-18T05:04:01;13.16;85.69
69464;DHT22;56665;41.106;16.688;2022-12-18T05:07:09;13.16;85.63
69464;DHT22;56665;41.106;16.688;2022-12-18T05:10:12;13.13;85.44
69464;DHT22;56665;41.106;16.688;2022-12-18T05:13:16;13.06;85.08
69464;DHT22;56665;41.106;16.688;2022-12-18T05:16:23;13.06;85.67
69464;DHT22;56665;41.106;16.688;2022-12-18T05:19:28;13.05;85.54
69464;DHT22;56665;41.106;16.688;2022-12-18T05:22:33;13.00;85.43
69464;DHT22;56665;41.106;16.688;2022-12-18T05:25:37;12.99;84.99
69464;DHT22;56665;41.106;16.688;2022-12-18T05:28:40;13.03;85.25
69464;DHT22;56665;41.106;16.688;2022-12-18T05:31:44;13.02;85.02
69464;DHT22;56665;41.106;16.688;2022-12-18T05:34:51;12.98;85.16
69464;DHT22;56665;41.106;16.688;2022-12-18T05:37:54;12.91;85.28
69464;DHT22;56665;41.106;16.688;2022-12-18T05:40:58;12.92;85.20
69464;DHT22;56665;41.106;16.688;2022-12-18T05:44:04;12.95;85.35
69464;DHT22;56665;41.106;16.688;2022-12-18T05:47:07;12.95;85.15
69464;DHT22;56665;41.106;16.688;2022-12-18T05:50:11;12.96;85.46
69464;DHT22;56665;41.106;16.688;2022-12-18T05:53:17;12.98;85.39
69464;DHT22;56665;41.106;16.688;2022-12-18T05:56:24;13.02;85.34
69464;DHT22;56665;41.106;16.688;2022-12-18T05:59:30;13.05;85.40
69464;DHT22;56665;41.106;16.688;2022-12-18T06:02:34;13.07;85.54
69464;DHT22;56665;41.106;16.688;2022-12-18T06:05:40;13.06;85.24
69464;DHT22;56665;41.106;16.688;2022-12-18T06:08:46;13.09;85.50
69464;DHT22;56665;41.106;16.688;2022-12-18T06:11:51;13.09;85.41
69464;DHT22;56665;41.106;16.688;2022-12-18T06:14:55;13.12;85.38
69464;DHT22;56665;41.106;16.688;2022-12-18T06:18:00;13.15;85.71
69464;DHT22;56665;41.106;16.688;2022-12-18T06:21:07;13.15;85.57
69464;DHT22;56665;41.106;16.688;2022-12-18T06:24:14;13.12;85.74
69464;DHT22;56665;41.106;16.688;2022-12-18T06:27:18;13.16;85.75
69464;DHT22;56665;41.106;16.688;2022-12-18T06:30:23;13.20;85.64
69464;DHT22;56665;41.106;16.688;2022-12-18T06:33:29;13.24;85.44
69464;DHT22;56665;41.106;16.688;2022-12-18T06:36:35;13.22;85.31
69464;DHT22;56665;41.106;16.688;2022-12-18T06:39:38;13.22;85.57
69464;DHT22;56665;41.106;16.688;2022-12-18T06:42:42;13.23;85.32
69464;DHT22;56665;41.106;16.688;2022-12-18T06:45:46;13.36;85.53
69464;DHT22;56665;41.106;16.688;2022-12-18T06:48:55;13.43;85.20
69464;DHT22;56665;41.106;16.688;2022-12-18T06:52:00;13.44;85.07
69464;DHT22;56665;41.106;16.688;2022-12-18T06:55:04;13.43;85.10
69464;DHT22;56665;41.106;16.688;2022-12-18T06:58:08;13.37;85.09
69464;DHT22;56665;41.106;16.688;2022-12-18T07:01:14;13.31;84.96
69464;DHT22;56665;41.106;16.688;2022-12-18T07:04:18;13.26;85.00
69464;DHT22;56665;41.106;16.688;2022-12-18T07:07:22;13.30;85.34
69464;DHT22;56665;41.106;16.688;2022-12-18T07:10:29;13.46;84.66
69464;DHT22;56665;41.106;16.688;2022-12-18T07:13:33;13.62;84.18
69464;DHT22;56665;41.106;16.688;2022-12-18T07:16:37;13.82;83.42
69464;DHT22;56665;41.106;16.688;2022-12-18T07:19:41;14.05;82.83
69464;DHT22;56665;41.106;16.688;2022-12-18T07:22:47;14.29;81.97
69464;DHT22;56665;41.106;16.688;2022-12-18T07:25:51;14.50;80.98
69464;DHT22;56665;41.106;16.688;2022-12-18T07:28:55;14.87;80.30
69464;DHT22;56665;41.106;16.688;2022-12-18T07:32:02;15.15;79.02
69464;DHT22;56665;41.106;16.688;2022-12-18T07:35:06;15.50;79.02
69464;DHT22;56665;41.106;16.688;2022-12-18T07:38:10;15.63;78.25
69464;DHT22;56665;41.106;16.688;2022-12-18T07:41:14;15.67;77.62
69464;DHT22;56665;41.106;16.688;2022-12-18T07:44:19;15.73;77.39
69464;DHT22;56665;41.106;16.688;2022-12-18T07:47:27;15.93;76.56
69464;DHT22;56665;41.106;16.688;2022-12-18T07:50:32;16.07;76.05
69464;DHT22;56665;41.106;16.688;2022-12-18T07:53:39;16.29;75.64
69464;DHT22;56665;41.106;16.688;2022-12-18T07:56:44;16.20;75.28
69464;DHT22;56665;41.106;16.688;2022-12-18T07:59:51;16.37;75.42
69464;DHT22;56665;41.106;16.688;2022-12-18T08:02:56;16.55;74.57
69464;DHT22;56665;41.106;16.688;2022-12-18T08:06:04;16.62;74.12
69464;DHT22;56665;41.106;16.688;2022-12-18T08:09:10;16.83;73.87
69464;DHT22;56665;41.106;16.688;2022-12-18T08:12:13;17.10;72.72
69464;DHT22;56665;41.106;16.688;2022-12-18T08:15:17;17.14;72.34
69464;DHT22;56665;41.106;16.688;2022-12-18T08:18:22;16.80;73.16
69464;DHT22;56665;41.106;16.688;2022-12-18T08:21:28;16.63;74.84
69464;DHT22;56665;41.106;16.688;2022-12-18T08:24:33;17.04;73.06
69464;DHT22;56665;41.106;16.688;2022-12-18T08:27:38;17.18;72.64
69464;DHT22;56665;41.106;16.688;2022-12-18T08:30:41;17.04;72.90
69464;DHT22;56665;41.106;16.688;2022-12-18T08:33:48;17.21;72.87
69464;DHT22;56665;41.106;16.688;2022-12-18T08:36:52;17.96;70.37
69464;DHT22;56665;41.106;16.688;2022-12-18T08:39:57;18.23;69.55
69464;DHT22;56665;41.106;16.688;2022-12-18T08:43:00;18.03;70.03
69464;DHT22;56665;41.106;16.688;2022-12-18T08:46:25;17.47;71.14
69464;DHT22;56665;41.106;16.688;2022-12-18T08:49:31;17.35;71.84
69464;DHT22;56665;41.106;16.688;2022-12-18T08:52:36;17.21;72.33
69464;DHT22;56665;41.106;16.688;2022-12-18T08:55:40;17.17;72.59
69464;DHT22;56665;41.106;16.688;2022-12-18T08:58:44;17.20;72.43
69464;DHT22;56665;41.106;16.688;2022-12-18T09:01:49;17.17;72.43
69464;DHT22;56665;41.106;16.688;2022-12-18T09:04:53;17.20;72.65
69464;DHT22;56665;41.106;16.688;2022-12-18T09:07:57;17.28;72.45
69464;DHT22;56665;41.106;16.688;2022-12-18T09:11:02;17.39;72.15
69464;DHT22;56665;41.106;16.688;2022-12-18T09:14:06;17.39;72.29
69464;DHT22;56665;41.106;16.688;2022-12-18T09:17:10;17.48;72.21
69464;DHT22;56665;41.106;16.688;2022-12-18T09:20:13;17.64;71.55
69464;DHT22;56665;41.106;16.688;2022-12-18T09:23:20;17.68;71.19
69464;DHT22;56665;41.106;16.688;2022-12-18T09:26:25;17.76;71.18
69464;DHT22;56665;41.106;16.688;2022-12-18T09:29:32;17.79;70.54
69464;DHT22;56665;41.106;16.688;2022-12-18T09:32:35;17.74;70.57
69464;DHT22;56665;41.106;16.688;2022-12-18T09:35:41;17.76;70.51
69464;DHT22;56665;41.106;16.688;2022-12-18T09:38:45;17.74;70.14
69464;DHT22;56665;41.106;16.688;2022-12-18T09:41:54;17.64;70.52
69464;DHT22;56665;41.106;16.688;2022-12-18T09:45:00;17.69;70.76
69464;DHT22;56665;41.106;16.688;2022-12-18T09:48:05;17.69;70.90
69464;DHT22;56665;41.106;16.688;2022-12-18T09:51:55;17.68;70.79
69464;DHT22;56665;41.106;16.688;2022-12-18T09:58:36;17.51;71.08
69464;DHT22;56665;41.106;16.688;2022-12-18T10:01:41;17.45;71.34
69464;DHT22;56665;41.106;16.688;2022-12-18T10:15:15;17.20;72.01
69464;DHT22;56665;41.106;16.688;2022-12-18T10:25:34;17.58;70.41
69464;DHT22;56665;41.106;16.688;2022-12-18T10:28:42;17.47;70.47
69464;DHT22;56665;41.106;16.688;2022-12-18T10:31:51;17.31;70.73
69464;DHT22;56665;41.106;16.688;2022-12-18T10:34:56;17.32;70.69
69464;DHT22;56665;41.106;16.688;2022-12-18T10:41:25;17.17;70.56
69464;DHT22;56665;41.106;16.688;2022-12-18T10:44:30;17.02;69.35
69464;DHT22;56665;41.106;16.688;2022-12-18T10:47:33;16.80;69.57
69464;DHT22;56665;41.106;16.688;2022-12-18T10:50:39;16.72;70.03
69464;DHT22;56665;41.106;16.688;2022-12-18T10:53:55;17.07;68.73
69464;DHT22;56665;41.106;16.688;2022-12-18T10:57:19;17.83;67.22
69464;DHT22;56665;41.106;16.688;2022-12-18T11:00:33;18.10;65.66
69464;DHT22;56665;41.106;16.688;2022-12-18T11:03:44;18.46;64.52
69464;DHT22;56665;41.106;16.688;2022-12-18T11:07:03;18.86;63.60
69464;DHT22;56665;41.106;16.688;2022-12-18T11:10:16;19.08;63.46
69464;DHT22;56665;41.106;16.688;2022-12-18T11:13:26;19.15;63.15
69464;DHT22;56665;41.106;16.688;2022-12-18T11:16:35;18.79;64.13
69464;DHT22;56665;41.106;16.688;2022-12-18T11:19:40;18.16;64.71
69464;DHT22;56665;41.106;16.688;2022-12-18T11:23:01;17.78;66.58
69464;DHT22;56665;41.106;16.688;2022-12-18T11:26:06;17.58;67.17
69464;DHT22;56665;41.106;16.688;2022-12-18T11:29:17;17.55;67.25
69464;DHT22;56665;41.106;16.688;2022-12-18T11:32:32;17.75;67.28
69464;DHT22;56665;41.106;16.688;2022-12-18T11:38:44;17.76;67.14
69464;DHT22;56665;41.106;16.688;2022-12-18T11:42:24;17.59;67.32
69464;DHT22;56665;41.106;16.688;2022-12-18T11:45:56;16.99;68.07
69464;DHT22;56665;41.106;16.688;2022-12-18T11:49:21;16.53;69.93
69464;DHT22;56665;41.106;16.688;2022-12-18T11:52:40;16.37;70.42
69464;DHT22;56665;41.106;16.688;2022-12-18T12:03:13;16.56;69.99
69464;DHT22;56665;41.106;16.688;2022-12-18T12:06:23;16.79;69.59
69464;DHT22;56665;41.106;16.688;2022-12-18T12:09:50;16.68;69.45
69464;DHT22;56665;41.106;16.688;2022-12-18T12:20:17;16.14;71.20
69464;DHT22;56665;41.106;16.688;2022-12-18T12:23:39;16.10;70.06
69464;DHT22;56665;41.106;16.688;2022-12-18T12:26:57;16.01;70.53
69464;DHT22;56665;41.106;16.688;2022-12-18T12:30:16;16.04;70.45
69464;DHT22;56665;41.106;16.688;2022-12-18T12:33:56;15.90;67.77
69464;DHT22;56665;41.106;16.688;2022-12-18T12:40:47;16.28;66.72
69464;DHT22;56665;41.106;16.688;2022-12-18T12:43:57;16.14;66.34
69464;DHT22;56665;41.106;16.688;2022-12-18T12:47:10;16.08;67.37
69464;DHT22;56665;41.106;16.688;2022-12-18T12:50:18;16.11;67.34
69464;DHT22;56665;41.106;16.688;2022-12-18T12:53:36;16.11;66.65
69464;DHT22;56665;41.106;16.688;2022-12-18T13:00:16;15.81;66.91
69464;DHT22;56665;41.106;16.688;2022-12-18T13:08:22;15.69;68.35
69464;DHT22;56665;41.106;16.688;2022-12-18T13:11:29;15.57;68.33
69464;DHT22;56665;41.106;16.688;2022-12-18T13:15:13;15.63;68.74
69464;DHT22;56665;41.106;16.688;2022-12-18T13:18:24;15.69;68.89
69464;DHT22;56665;41.106;16.688;2022-12-18T13:21:33;15.69;69.26
69464;DHT22;56665;41.106;16.688;2022-12-18T13:24:38;15.69;69.07
69464;DHT22;56665;41.106;16.688;2022-12-18T13:30:55;15.67;67.07
69464;DHT22;56665;41.106;16.688;2022-12-18T13:34:16;15.69;67.98
69464;DHT22;56665;41.106;16.688;2022-12-18T13:37:40;15.76;68.48
69464;DHT22;56665;41.106;16.688;2022-12-18T13:44:37;15.76;68.73
69464;DHT22;56665;41.106;16.688;2022-12-18T13:47:43;15.71;68.95
69464;DHT22;56665;41.106;16.688;2022-12-18T13:51:13;15.67;69.23
69464;DHT22;56665;41.106;16.688;2022-12-18T13:54:33;15.66;70.48
69464;DHT22;56665;41.106;16.688;2022-12-18T13:57:41;15.62;70.04
69464;DHT22;56665;41.106;16.688;2022-12-18T14:00:45;15.50;69.61
69464;DHT22;56665;41.106;16.688;2022-12-18T14:03:49;15.50;69.45
69464;DHT22;56665;41.106;16.688;2022-12-18T14:07:05;15.50;70.07
69464;DHT22;56665;41.106;16.688;2022-12-18T14:10:12;15.49;69.35
69464;DHT22;56665;41.106;16.688;2022-12-18T14:13:31;15.46;69.22
69464;DHT22;56665;41.106;16.688;2022-12-18T14:16:37;15.35;69.04
69464;DHT22;56665;41.106;16.688;2022-12-18T14:19:49;15.32;68.52
69464;DHT22;56665;41.106;16.688;2022-12-18T14:22:54;15.20;68.89
69464;DHT22;56665;41.106;16.688;2022-12-18T14:26:01;15.12;70.21
69464;DHT22;56665;41.106;16.688;2022-12-18T14:29:27;15.02;69.75
69464;DHT22;56665;41.106;16.688;2022-12-18T14:32:31;15.04;70.39
69464;DHT22;56665;41.106;16.688;2022-12-18T14:35:39;14.91;69.81
69464;DHT22;56665;41.106;16.688;2022-12-18T14:38:42;14.85;69.30
69464;DHT22;56665;41.106;16.688;2022-12-18T14:41:51;14.76;69.58
69464;DHT22;56665;41.106;16.688;2022-12-18T14:48:41;14.63;69.50
69464;DHT22;56665;41.106;16.688;2022-12-18T14:51:54;14.60;69.98
69464;DHT22;56665;41.106;16.688;2022-12-18T14:54:58;14.59;70.82
69464;DHT22;56665;41.106;16.688;2022-12-18T14:58:02;14.52;70.17
69464;DHT22;56665;41.106;16.688;2022-12-18T15:01:06;14.56;70.79
69464;DHT22;56665;41.106;16.688;2022-12-18T15:04:38;14.50;70.81
69464;DHT22;56665;41.106;16.688;2022-12-18T15:07:52;14.49;71.25
69464;DHT22;56665;41.106;16.688;2022-12-18T15:10:55;14.47;71.61
69464;DHT22;56665;41.106;16.688;2022-12-18T15:14:03;14.41;71.84
69464;DHT22;56665;41.106;16.688;2022-12-18T15:17:24;14.39;72.25
69464;DHT22;56665;41.106;16.688;2022-12-18T15:26:47;14.22;73.29
69464;DHT22;56665;41.106;16.688;2022-12-18T15:33:25;14.19;73.48
69464;DHT22;56665;41.106;16.688;2022-12-18T15:36:29;14.13;73.86
69464;DHT22;56665;41.106;16.688;2022-12-18T15:39:34;14.12;73.19
69464;DHT22;56665;41.106;16.688;2022-12-18T15:42:38;14.13;73.63
69464;DHT22;56665;41.106;16.688;2022-12-18T15:46:04;14.16;73.80
69464;DHT22;56665;41.106;16.688;2022-12-18T15:49:08;14.13;73.57
69464;DHT22;56665;41.106;16.688;2022-12-18T15:52:17;14.08;73.89
69464;DHT22;56665;41.106;16.688;2022-12-18T15:55:29;14.09;73.77
69464;DHT22;56665;41.106;16.688;2022-12-18T15:58:51;14.12;73.58
69464;DHT22;56665;41.106;16.688;2022-12-18T16:01:55;14.08;74.14
69464;DHT22;56665;41.106;16.688;2022-12-18T16:04:59;14.08;74.00
69464;DHT22;56665;41.106;16.688;2022-12-18T16:08:06;14.08;74.01
69464;DHT22;56665;41.106;16.688;2022-12-18T16:11:31;14.08;74.16
69464;DHT22;56665;41.106;16.688;2022-12-18T16:14:47;14.02;74.73
69464;DHT22;56665;41.106;16.688;2022-12-18T16:17:51;14.15;75.08
69464;DHT22;56665;41.106;16.688;2022-12-18T16:20:57;14.22;73.74
69464;DHT22;56665;41.106;16.688;2022-12-18T16:24:02;14.27;74.65
69464;DHT22;56665;41.106;16.688;2022-12-18T16:27:07;14.41;74.30
69464;DHT22;56665;41.106;16.688;2022-12-18T16:30:21;14.53;74.36
69464;DHT22;56665;41.106;16.688;2022-12-18T16:33:28;14.55;73.80
69464;DHT22;56665;41.106;16.688;2022-12-18T16:36:32;14.56;73.57
69464;DHT22;56665;41.106;16.688;2022-12-18T16:39:37;14.53;73.63
69464;DHT22;56665;41.106;16.688;2022-12-18T16:42:44;14.46;73.67
69464;DHT22;56665;41.106;16.688;2022-12-18T16:45:49;14.41;73.72
69464;DHT22;56665;41.106;16.688;2022-12-18T16:48:54;14.43;73.32
69464;DHT22;56665;41.106;16.688;2022-12-18T16:51:58;14.40;73.78
69464;DHT22;56665;41.106;16.688;2022-12-18T16:55:02;14.44;74.41
69464;DHT22;56665;41.106;16.688;2022-12-18T16:58:09;14.43;73.45
69464;DHT22;56665;41.106;16.688;2022-12-18T17:01:16;14.52;73.54
69464;DHT22;56665;41.106;16.688;2022-12-18T17:04:20;14.47;73.30
69464;DHT22;56665;41.106;16.688;2022-12-18T17:07:25;14.47;73.13
69464;DHT22;56665;41.106;16.688;2022-12-18T17:10:36;14.46;73.54
69464;DHT22;56665;41.106;16.688;2022-12-18T17:13:39;14.32;73.97
69464;DHT22;56665;41.106;16.688;2022-12-18T17:16:43;14.32;74.36
69464;DHT22;56665;41.106;16.688;2022-12-18T17:19:51;14.22;74.66
69464;DHT22;56665;41.106;16.688;2022-12-18T17:22:55;14.20;75.05
69464;DHT22;56665;41.106;16.688;2022-12-18T17:25:59;14.23;74.52
69464;DHT22;56665;41.106;16.688;2022-12-18T17:29:03;14.22;74.86
69464;DHT22;56665;41.106;16.688;2022-12-18T17:32:09;14.18;74.86
69464;DHT22;56665;41.106;16.688;2022-12-18T17:35:13;14.18;75.06
69464;DHT22;56665;41.106;16.688;2022-12-18T17:38:17;14.15;75.19
69464;DHT22;56665;41.106;16.688;2022-12-18T17:41:21;14.06;75.33
69464;DHT22;56665;41.106;16.688;2022-12-18T17:44:25;14.09;75.20
69464;DHT22;56665;41.106;16.688;2022-12-18T17:47:29;14.10;75.54
69464;DHT22;56665;41.106;16.688;2022-12-18T17:50:34;14.08;75.00
69464;DHT22;56665;41.106;16.688;2022-12-18T17:53:39;13.98;75.12
69464;DHT22;56665;41.106;16.688;2022-12-18T17:56:43;13.92;75.58
69464;DHT22;56665;41.106;16.688;2022-12-18T17:59:47;13.95;75.73
69464;DHT22;56665;41.106;16.688;2022-12-18T18:02:51;13.89;75.47
69464;DHT22;56665;41.106;16.688;2022-12-18T18:05:56;13.89;75.85
69464;DHT22;56665;41.106;16.688;2022-12-18T18:09:06;13.88;75.57
69464;DHT22;56665;41.106;16.688;2022-12-18T18:12:11;13.87;75.17
69464;DHT22;56665;41.106;16.688;2022-12-18T18:15:36;13.74;74.93
69464;DHT22;56665;41.106;16.688;2022-12-18T18:18:43;13.75;75.59
69464;DHT22;56665;41.106;16.688;2022-12-18T18:21:49;13.79;74.90
69464;DHT22;56665;41.106;16.688;2022-12-18T18:24:54;13.78;75.17
69464;DHT22;56665;41.106;16.688;2022-12-18T18:27:58;13.77;74.79
69464;DHT22;56665;41.106;16.688;2022-12-18T18:31:07;13.77;75.04
69464;DHT22;56665;41.106;16.688;2022-12-18T18:34:23;13.78;74.65
69464;DHT22;56665;41.106;16.688;2022-12-18T18:37:30;13.75;74.18
69464;DHT22;56665;41.106;16.688;2022-12-18T18:40:34;13.73;74.93
69464;DHT22;56665;41.106;16.688;2022-12-18T18:43:39;13.73;74.76
69464;DHT22;56665;41.106;16.688;2022-12-18T18:46:44;13.73;75.14
69464;DHT22;56665;41.106;16.688;2022-12-18T18:49:51;13.74;74.99
69464;DHT22;56665;41.106;16.688;2022-12-18T18:52:54;13.70;75.07
69464;DHT22;56665;41.106;16.688;2022-12-18T18:56:01;13.73;74.96
69464;DHT22;56665;41.106;16.688;2022-12-18T18:59:08;13.62;75.27
69464;DHT22;56665;41.106;16.688;2022-12-18T19:02:15;13.58;74.96
69464;DHT22;56665;41.106;16.688;2022-12-18T19:05:19;13.50;75.45
69464;DHT22;56665;41.106;16.688;2022-12-18T19:08:30;13.50;75.28
69464;DHT22;56665;41.106;16.688;2022-12-18T19:11:34;13.51;76.09
69464;DHT22;56665;41.106;16.688;2022-12-18T19:14:56;13.57;76.67
69464;DHT22;56665;41.106;16.688;2022-12-18T19:18:00;13.73;76.86
69464;DHT22;56665;41.106;16.688;2022-12-18T19:21:07;13.87;76.33
69464;DHT22;56665;41.106;16.688;2022-12-18T19:24:10;13.96;75.54
69464;DHT22;56665;41.106;16.688;2022-12-18T19:27:14;14.09;75.25
69464;DHT22;56665;41.106;16.688;2022-12-18T19:30:18;14.15;74.94
69464;DHT22;56665;41.106;16.688;2022-12-18T19:33:22;14.23;74.50
69464;DHT22;56665;41.106;16.688;2022-12-18T19:36:28;14.27;74.06
69464;DHT22;56665;41.106;16.688;2022-12-18T19:39:35;14.19;73.19
69464;DHT22;56665;41.106;16.688;2022-12-18T19:42:39;14.18;74.36
69464;DHT22;56665;41.106;16.688;2022-12-18T19:45:43;14.22;74.72
69464;DHT22;56665;41.106;16.688;2022-12-18T19:48:47;14.29;73.94
69464;DHT22;56665;41.106;16.688;2022-12-18T19:51:51;14.33;74.31
69464;DHT22;56665;41.106;16.688;2022-12-18T19:54:55;14.26;73.73
69464;DHT22;56665;41.106;16.688;2022-12-18T19:57:59;14.20;73.93
69464;DHT22;56665;41.106;16.688;2022-12-18T20:01:02;14.13;74.02
69464;DHT22;56665;41.106;16.688;2022-12-18T20:04:06;14.13;74.49
69464;DHT22;56665;41.106;16.688;2022-12-18T20:07:10;14.05;74.38
69464;DHT22;56665;41.106;16.688;2022-12-18T20:10:14;14.05;75.05
69464;DHT22;56665;41.106;16.688;2022-12-18T20:13:17;14.02;74.75
69464;DHT22;56665;41.106;16.688;2022-12-18T20:16:21;14.05;74.75
69464;DHT22;56665;41.106;16.688;2022-12-18T20:19:28;14.08;74.60
69464;DHT22;56665;41.106;16.688;2022-12-18T20:22:34;14.06;74.01
69464;DHT22;56665;41.106;16.688;2022-12-18T20:25:39;14.05;74.23
69464;DHT22;56665;41.106;16.688;2022-12-18T20:28:43;14.02;74.03
69464;DHT22;56665;41.106;16.688;2022-12-18T20:31:47;14.01;74.92
69464;DHT22;56665;41.106;16.688;2022-12-18T20:34:51;14.01;74.96
69464;DHT22;56665;41.106;16.688;2022-12-18T20:37:55;13.98;74.82
69464;DHT22;56665;41.106;16.688;2022-12-18T20:41:05;13.94;75.20
69464;DHT22;56665;41.106;16.688;2022-12-18T20:44:17;13.91;75.44
69464;DHT22;56665;41.106;16.688;2022-12-18T20:47:22;13.88;75.48
69464;DHT22;56665;41.106;16.688;2022-12-18T20:50:25;13.79;75.78
69464;DHT22;56665;41.106;16.688;2022-12-18T20:53:32;13.81;76.03
69464;DHT22;56665;41.106;16.688;2022-12-18T20:56:36;13.73;75.90
69464;DHT22;56665;41.106;16.688;2022-12-18T20:59:41;13.74;76.20
69464;DHT22;56665;41.106;16.688;2022-12-18T21:02:44;13.70;76.37